sensor_id;sensor_type;location;lat;lon;timestamp;pressure;altitude;pressure_sealevel;temperature;humidity
34124;BME280;13153;52.316;21.166;2022-09-21T00:01:16;100555.03;;;14.05;66.67
34124;BME280;13153;52.316;21.166;2022-09-21T00:03:43;100554.13;;;14.03;66.64
34124;BME280;13153;52.316;21.166;2022-09-21T00:06:20;100549.69;;;14.02;66.56
34124;BME280;13153;52.316;21.166;2022-09-21T00:08:48;100548.81;;;14.03;66.69
34124;BME280;13153;52.316;21.166;2022-09-21T00:11:17;100549.72;;;14.04;66.87
34124;BME280;13153;52.316;21.166;2022-09-21T00:13:43;100547.06;;;14.04;66.67
34124;BME280;13153;52.316;21.166;2022-09-21T00:16:12;100546.22;;;14.05;66.69
34124;BME280;13153;52.316;21.166;2022-09-21T00:18:38;100548.00;;;14.07;67.06
34124;BME280;13153;52.316;21.166;2022-09-21T00:21:09;100552.44;;;14.10;66.54
34124;BME280;13153;52.316;21.166;2022-09-21T00:23:36;100552.44;;;14.10;66.91
34124;BME280;13153;52.316;21.166;2022-09-21T00:26:13;100552.47;;;14.11;67.06
34124;BME280;13153;52.316;21.166;2022-09-21T00:28:40;100549.84;;;14.13;66.92
34124;BME280;13153;52.316;21.166;2022-09-21T00:31:09;100555.16;;;14.13;66.99
34124;BME280;13153;52.316;21.166;2022-09-21T00:33:37;100549.00;;;14.14;66.88
34124;BME280;13153;52.316;21.166;2022-09-21T00:36:07;100562.22;;;14.14;66.70
34124;BME280;13153;52.316;21.166;2022-09-21T00:38:36;100552.53;;;14.14;67.19
34124;BME280;13153;52.316;21.166;2022-09-21T00:41:03;100543.72;;;14.15;67.16
34124;BME280;13153;52.316;21.166;2022-09-21T00:43:34;100560.53;;;14.19;67.24
34124;BME280;13153;52.316;21.166;2022-09-21T00:46:05;100559.66;;;14.20;66.89
34124;BME280;13153;52.316;21.166;2022-09-21T00:48:34;100557.94;;;14.22;66.94
34124;BME280;13153;52.316;21.166;2022-09-21T00:51:05;100554.34;;;14.18;67.14
34124;BME280;13153;52.316;21.166;2022-09-21T00:53:34;100560.53;;;14.19;67.10
34124;BME280;13153;52.316;21.166;2022-09-21T00:56:02;100552.63;;;14.20;67.46
34124;BME280;13153;52.316;21.166;2022-09-21T00:58:36;100558.88;;;14.26;67.59
34124;BME280;13153;52.316;21.166;2022-09-21T01:01:03;100553.59;;;14.27;66.88
34124;BME280;13153;52.316;21.166;2022-09-21T01:03:31;100554.47;;;14.28;67.13
34124;BME280;13153;52.316;21.166;2022-09-21T01:05:57;100560.66;;;14.28;67.22
34124;BME280;13153;52.316;21.166;2022-09-21T01:08:26;100556.25;;;14.29;67.27
34124;BME280;13153;52.316;21.166;2022-09-21T01:11:27;100558.97;;;14.32;67.48
34124;BME280;13153;52.316;21.166;2022-09-21T01:17:01;100559.81;;;14.31;67.62
34124;BME280;13153;52.316;21.166;2022-09-21T01:26:50;100563.38;;;14.33;67.49
34124;BME280;13153;52.316;21.166;2022-09-21T01:29:39;100567.84;;;14.35;67.86
34124;BME280;13153;52.316;21.166;2022-09-21T01:32:17;100572.28;;;14.38;67.87
34124;BME280;13153;52.316;21.166;2022-09-21T01:35:00;100572.31;;;14.39;67.68
34124;BME280;13153;52.316;21.166;2022-09-21T01:37:58;100576.72;;;14.40;67.64
34124;BME280;13153;52.316;21.166;2022-09-21T01:40:32;100571.44;;;14.40;67.93
34124;BME280;13153;52.316;21.166;2022-09-21T01:43:03;100579.38;;;14.40;67.71
34124;BME280;13153;52.316;21.166;2022-09-21T01:45:36;100573.19;;;14.40;67.74
34124;BME280;13153;52.316;21.166;2022-09-21T01:48:06;100580.31;;;14.42;67.72
34124;BME280;13153;52.316;21.166;2022-09-21T01:50:39;100579.44;;;14.43;67.82
34124;BME280;13153;52.316;21.166;2022-09-21T01:53:37;100576.81;;;14.43;67.95
34124;BME280;13153;52.316;21.166;2022-09-21T01:56:21;100580.34;;;14.45;67.62
34124;BME280;13153;52.316;21.166;2022-09-21T02:01:52;100582.97;;;14.45;67.94
34124;BME280;13153;52.316;21.166;2022-09-21T02:04:18;100584.75;;;14.46;67.88
34124;BME280;13153;52.316;21.166;2022-09-21T02:06:46;100583.03;;;14.48;68.00
34124;BME280;13153;52.316;21.166;2022-09-21T02:09:13;100586.53;;;14.47;68.17
34124;BME280;13153;52.316;21.166;2022-09-21T02:11:39;100598.00;;;14.46;67.83
34124;BME280;13153;52.316;21.166;2022-09-21T02:14:14;100588.31;;;14.48;68.13
34124;BME280;13153;52.316;21.166;2022-09-21T02:20:06;100588.34;;;14.50;67.99
34124;BME280;13153;52.316;21.166;2022-09-21T02:25:51;100584.81;;;14.51;68.14
34124;BME280;13153;52.316;21.166;2022-09-21T02:28:49;100586.59;;;14.52;68.50
34124;BME280;13153;52.316;21.166;2022-09-21T02:31:37;100582.22;;;14.54;68.46
34124;BME280;13153;52.316;21.166;2022-09-21T02:34:35;100585.78;;;14.56;67.96
34124;BME280;13153;52.316;21.166;2022-09-21T02:37:26;100588.44;;;14.58;68.30
34124;BME280;13153;52.316;21.166;2022-09-21T02:40:20;100587.59;;;14.60;68.36
34124;BME280;13153;52.316;21.166;2022-09-21T02:42:54;100587.63;;;14.63;68.55
34124;BME280;13153;52.316;21.166;2022-09-21T02:45:27;100598.25;;;14.65;68.33
34124;BME280;13153;52.316;21.166;2022-09-21T02:48:17;100598.25;;;14.65;68.50
34124;BME280;13153;52.316;21.166;2022-09-21T02:50:52;100592.06;;;14.64;68.22
34124;BME280;13153;52.316;21.166;2022-09-21T02:53:26;100611.47;;;14.63;68.31
34124;BME280;13153;52.316;21.166;2022-09-21T02:55:56;100615.00;;;14.64;68.53
34124;BME280;13153;52.316;21.166;2022-09-21T02:58:25;100608.81;;;14.63;68.53
34124;BME280;13153;52.316;21.166;2022-09-21T03:00:55;100598.25;;;14.65;68.63
34124;BME280;13153;52.316;21.166;2022-09-21T03:03:23;100602.66;;;14.64;68.52
34124;BME280;13153;52.316;21.166;2022-09-21T03:05:52;100607.09;;;14.65;68.33
34124;BME280;13153;52.316;21.166;2022-09-21T03:08:19;100609.75;;;14.65;68.55
34124;BME280;13153;52.316;21.166;2022-09-21T03:10:44;100606.25;;;14.68;68.64
34124;BME280;13153;52.316;21.166;2022-09-21T03:13:12;100610.66;;;14.69;68.54
34124;BME280;13153;52.316;21.166;2022-09-21T03:15:39;100617.69;;;14.67;68.64
34124;BME280;13153;52.316;21.166;2022-09-21T03:18:07;100616.81;;;14.66;68.42
34124;BME280;13153;52.316;21.166;2022-09-21T03:20:35;100613.31;;;14.69;68.48
34124;BME280;13153;52.316;21.166;2022-09-21T03:23:02;100622.19;;;14.71;68.25
34124;BME280;13153;52.316;21.166;2022-09-21T03:25:29;100616.00;;;14.70;68.39
34124;BME280;13153;52.316;21.166;2022-09-21T03:27:56;100617.78;;;14.71;68.73
34124;BME280;13153;52.316;21.166;2022-09-21T03:30:23;100616.00;;;14.72;68.33
34124;BME280;13153;52.316;21.166;2022-09-21T03:32:52;100618.66;;;14.72;68.39
34124;BME280;13153;52.316;21.166;2022-09-21T03:35:20;100628.38;;;14.71;68.33
34124;BME280;13153;52.316;21.166;2022-09-21T03:37:47;100616.00;;;14.72;68.63
34124;BME280;13153;52.316;21.166;2022-09-21T03:40:16;100627.50;;;14.74;68.74
34124;BME280;13153;52.316;21.166;2022-09-21T03:42:42;100623.09;;;14.74;68.87
34124;BME280;13153;52.316;21.166;2022-09-21T03:45:10;100621.34;;;14.75;68.71
34124;BME280;13153;52.316;21.166;2022-09-21T03:47:38;100619.56;;;14.74;68.89
34124;BME280;13153;52.316;21.166;2022-09-21T03:50:06;100624.88;;;14.74;68.75
34124;BME280;13153;52.316;21.166;2022-09-21T03:52:32;100627.50;;;14.74;68.77
34124;BME280;13153;52.316;21.166;2022-09-21T03:54:58;100623.09;;;14.74;68.33
34124;BME280;13153;52.316;21.166;2022-09-21T03:57:23;100633.72;;;14.76;68.43
34124;BME280;13153;52.316;21.166;2022-09-21T03:59:49;100637.28;;;14.78;68.48
34124;BME280;13153;52.316;21.166;2022-09-21T04:02:15;100633.72;;;14.76;68.45
34124;BME280;13153;52.316;21.166;2022-09-21T04:04:41;100632.00;;;14.78;68.57
34124;BME280;13153;52.316;21.166;2022-09-21T04:07:07;100633.75;;;14.77;68.68
34124;BME280;13153;52.316;21.166;2022-09-21T04:09:33;100639.06;;;14.79;68.69
34124;BME280;13153;52.316;21.166;2022-09-21T04:11:58;100642.63;;;14.81;68.75
34124;BME280;13153;52.316;21.166;2022-09-21T04:14:24;100640.88;;;14.81;68.98
34124;BME280;13153;52.316;21.166;2022-09-21T04:16:50;100646.13;;;14.80;68.51
34124;BME280;13153;52.316;21.166;2022-09-21T04:19:17;100647.00;;;14.79;68.66
34124;BME280;13153;52.316;21.166;2022-09-21T04:21:43;100647.00;;;14.79;68.68
34124;BME280;13153;52.316;21.166;2022-09-21T04:24:09;100652.31;;;14.80;68.73
34124;BME280;13153;52.316;21.166;2022-09-21T04:26:35;100654.09;;;14.80;68.87
34124;BME280;13153;52.316;21.166;2022-09-21T04:29:02;100647.91;;;14.79;69.06
34124;BME280;13153;52.316;21.166;2022-09-21T04:31:29;100647.91;;;14.81;68.93
34124;BME280;13153;52.316;21.166;2022-09-21T04:33:56;100651.47;;;14.83;68.97
34124;BME280;13153;52.316;21.166;2022-09-21T04:36:25;100655.91;;;14.82;69.21
34124;BME280;13153;52.316;21.166;2022-09-21T04:38:52;100659.44;;;14.83;68.93
34124;BME280;13153;52.316;21.166;2022-09-21T04:41:17;100658.56;;;14.84;68.95
34124;BME280;13153;52.316;21.166;2022-09-21T04:43:45;100661.22;;;14.85;68.87
34124;BME280;13153;52.316;21.166;2022-09-21T04:46:17;100663.91;;;14.87;69.13
34124;BME280;13153;52.316;21.166;2022-09-21T04:48:43;100670.13;;;14.89;69.18
34124;BME280;13153;52.316;21.166;2022-09-21T04:51:10;100671.03;;;14.91;68.97
34124;BME280;13153;52.316;21.166;2022-09-21T04:53:39;100671.94;;;14.93;69.04
34124;BME280;13153;52.316;21.166;2022-09-21T04:56:07;100670.19;;;14.94;69.26
34124;BME280;13153;52.316;21.166;2022-09-21T04:58:33;100679.91;;;14.95;69.02
34124;BME280;13153;52.316;21.166;2022-09-21T05:00:58;100678.16;;;14.95;68.87
34124;BME280;13153;52.316;21.166;2022-09-21T05:03:25;100672.84;;;14.95;68.99
34124;BME280;13153;52.316;21.166;2022-09-21T05:05:56;100673.72;;;14.96;69.21
34124;BME280;13153;52.316;21.166;2022-09-21T05:08:24;100686.13;;;14.98;69.08
34124;BME280;13153;52.316;21.166;2022-09-21T05:11:13;100679.97;;;14.99;68.99
34124;BME280;13153;52.316;21.166;2022-09-21T05:13:41;100684.41;;;15.00;69.10
34124;BME280;13153;52.316;21.166;2022-09-21T05:16:08;100685.28;;;15.02;68.84
34124;BME280;13153;52.316;21.166;2022-09-21T05:18:34;100694.13;;;15.04;68.98
34124;BME280;13153;52.316;21.166;2022-09-21T05:21:02;100690.63;;;15.05;68.93
34124;BME280;13153;52.316;21.166;2022-09-21T05:23:30;100696.84;;;15.09;68.96
34124;BME280;13153;52.316;21.166;2022-09-21T05:25:58;100693.34;;;15.11;68.92
34124;BME280;13153;52.316;21.166;2022-09-21T05:28:25;100694.31;;;15.16;69.06
34124;BME280;13153;52.316;21.166;2022-09-21T05:31:21;100699.63;;;15.19;69.16
34124;BME280;13153;52.316;21.166;2022-09-21T05:33:57;100704.97;;;15.23;68.63
34124;BME280;13153;52.316;21.166;2022-09-21T05:37:09;100705.03;;;15.26;68.92
34124;BME280;13153;52.316;21.166;2022-09-21T05:39:31;100704.22;;;15.31;68.96
34124;BME280;13153;52.316;21.166;2022-09-21T05:41:58;100707.75;;;15.32;68.62
34124;BME280;13153;52.316;21.166;2022-09-21T05:44:24;100709.53;;;15.33;68.63
34124;BME280;13153;52.316;21.166;2022-09-21T05:56:08;100722.94;;;15.45;68.68
34124;BME280;13153;52.316;21.166;2022-09-21T06:02:17;100723.91;;;15.51;68.47
34124;BME280;13153;52.316;21.166;2022-09-21T06:04:44;100730.97;;;15.51;68.40
34124;BME280;13153;52.316;21.166;2022-09-21T06:07:11;100723.06;;;15.54;68.49
34124;BME280;13153;52.316;21.166;2022-09-21T06:09:37;100726.63;;;15.56;68.34
34124;BME280;13153;52.316;21.166;2022-09-21T06:12:03;100724.94;;;15.60;68.27
34124;BME280;13153;52.316;21.166;2022-09-21T06:14:29;100723.16;;;15.63;68.47
34124;BME280;13153;52.316;21.166;2022-09-21T06:16:54;100731.19;;;15.68;68.25
34124;BME280;13153;52.316;21.166;2022-09-21T06:19:20;100727.69;;;15.72;67.96
34124;BME280;13153;52.316;21.166;2022-09-21T06:21:46;100729.50;;;15.76;68.16
34124;BME280;13153;52.316;21.166;2022-09-21T06:24:11;100733.09;;;15.81;67.74
34124;BME280;13153;52.316;21.166;2022-09-21T06:26:37;100734.91;;;15.83;67.38
34124;BME280;13153;52.316;21.166;2022-09-21T06:29:03;100741.09;;;15.85;67.31
34124;BME280;13153;52.316;21.166;2022-09-21T06:31:29;100741.09;;;15.85;67.14
34124;BME280;13153;52.316;21.166;2022-09-21T06:33:55;100736.69;;;15.86;66.98
34124;BME280;13153;52.316;21.166;2022-09-21T06:36:21;100745.50;;;15.83;66.65
34124;BME280;13153;52.316;21.166;2022-09-21T06:38:47;100750.81;;;15.83;66.38
34124;BME280;13153;52.316;21.166;2022-09-21T06:41:13;100742.88;;;15.87;66.36
34124;BME280;13153;52.316;21.166;2022-09-21T06:43:39;100747.38;;;15.92;66.61
34124;BME280;13153;52.316;21.166;2022-09-21T06:46:05;100749.22;;;15.99;66.78
34124;BME280;13153;52.316;21.166;2022-09-21T06:48:33;100751.06;;;16.05;66.51
34124;BME280;13153;52.316;21.166;2022-09-21T06:51:03;100753.69;;;16.05;66.05
34124;BME280;13153;52.316;21.166;2022-09-21T06:53:31;100755.47;;;16.06;65.97
34124;BME280;13153;52.316;21.166;2022-09-21T06:56:07;100765.19;;;16.04;65.60
34124;BME280;13153;52.316;21.166;2022-09-21T06:58:34;100759.03;;;16.06;65.50
34124;BME280;13153;52.316;21.166;2022-09-21T07:01:08;100761.75;;;16.14;65.11
34124;BME280;13153;52.316;21.166;2022-09-21T07:03:34;100767.94;;;16.13;65.01
34124;BME280;13153;52.316;21.166;2022-09-21T07:06:00;100773.25;;;16.13;65.05
34124;BME280;13153;52.316;21.166;2022-09-21T07:08:26;100768.84;;;16.15;64.59
34124;BME280;13153;52.316;21.166;2022-09-21T07:10:52;100768.88;;;16.19;63.91
34124;BME280;13153;52.316;21.166;2022-09-21T07:13:18;100761.84;;;16.26;64.12
34124;BME280;13153;52.316;21.166;2022-09-21T07:15:44;100769.94;;;16.38;63.42
34124;BME280;13153;52.316;21.166;2022-09-21T07:18:13;100771.78;;;16.47;63.16
34124;BME280;13153;52.316;21.166;2022-09-21T07:20:40;100765.59;;;16.48;62.93
34124;BME280;13153;52.316;21.166;2022-09-21T07:23:18;100767.38;;;16.49;63.29
34124;BME280;13153;52.316;21.166;2022-09-21T07:25:48;100774.44;;;16.45;63.45
34124;BME280;13153;52.316;21.166;2022-09-21T07:28:15;100775.31;;;16.44;63.54
34124;BME280;13153;52.316;21.166;2022-09-21T07:30:41;100773.53;;;16.43;63.32
34124;BME280;13153;52.316;21.166;2022-09-21T07:33:08;100772.66;;;16.46;63.78
34124;BME280;13153;52.316;21.166;2022-09-21T07:35:34;100774.47;;;16.48;63.92
34124;BME280;13153;52.316;21.166;2022-09-21T07:38:03;100772.69;;;16.47;63.08
34124;BME280;13153;52.316;21.166;2022-09-21T07:40:29;100778.09;;;16.61;62.18
34124;BME280;13153;52.316;21.166;2022-09-21T07:42:59;100782.72;;;16.82;61.94
34124;BME280;13153;52.316;21.166;2022-09-21T07:45:29;100781.91;;;16.92;61.10
34124;BME280;13153;52.316;21.166;2022-09-21T07:48:05;100782.84;;;17.00;60.88
34124;BME280;13153;52.316;21.166;2022-09-21T07:50:32;100783.75;;;17.02;60.79
34124;BME280;13153;52.316;21.166;2022-09-21T07:53:02;100778.41;;;16.99;60.45
34124;BME280;13153;52.316;21.166;2022-09-21T07:55:28;100784.59;;;16.98;61.09
34124;BME280;13153;52.316;21.166;2022-09-21T07:57:54;100782.81;;;16.96;60.63
34124;BME280;13153;52.316;21.166;2022-09-21T08:00:39;100792.56;;;16.98;60.90
34124;BME280;13153;52.316;21.166;2022-09-21T08:03:05;100789.91;;;16.98;60.38
34124;BME280;13153;52.316;21.166;2022-09-21T08:05:32;100787.25;;;16.95;60.31
34124;BME280;13153;52.316;21.166;2022-09-21T08:07:58;100796.94;;;16.90;59.80
34124;BME280;13153;52.316;21.166;2022-09-21T08:10:24;100784.53;;;16.89;60.48
34124;BME280;13153;52.316;21.166;2022-09-21T08:12:53;100794.28;;;16.90;60.88
34124;BME280;13153;52.316;21.166;2022-09-21T08:15:20;100800.47;;;16.88;60.99
34124;BME280;13153;52.316;21.166;2022-09-21T08:17:46;100798.69;;;16.87;61.09
34124;BME280;13153;52.316;21.166;2022-09-21T08:20:11;100798.69;;;16.85;61.19
34124;BME280;13153;52.316;21.166;2022-09-21T08:22:39;100801.34;;;16.85;61.62
34124;BME280;13153;52.316;21.166;2022-09-21T08:25:05;100798.69;;;16.85;61.58
34124;BME280;13153;52.316;21.166;2022-09-21T08:27:31;100795.13;;;16.84;61.37
34124;BME280;13153;52.316;21.166;2022-09-21T08:29:57;100804.00;;;16.85;61.28
34124;BME280;13153;52.316;21.166;2022-09-21T08:32:22;100802.25;;;16.90;61.61
34124;BME280;13153;52.316;21.166;2022-09-21T08:34:48;100799.66;;;16.96;61.14
34124;BME280;13153;52.316;21.166;2022-09-21T08:37:15;100808.59;;;17.07;61.25
34124;BME280;13153;52.316;21.166;2022-09-21T08:39:41;100807.75;;;17.11;60.64
34124;BME280;13153;52.316;21.166;2022-09-21T08:45:12;100797.97;;;17.09;60.20
34124;BME280;13153;52.316;21.166;2022-09-21T08:47:47;100813.06;;;17.11;59.99
34124;BME280;13153;52.316;21.166;2022-09-21T08:50:40;100806.03;;;17.23;60.06
34124;BME280;13153;52.316;21.166;2022-09-21T08:53:34;100805.19;;;17.30;60.15
34124;BME280;13153;52.316;21.166;2022-09-21T08:56:01;100811.41;;;17.30;59.15
34124;BME280;13153;52.316;21.166;2022-09-21T08:58:30;100813.19;;;17.30;58.57
34124;BME280;13153;52.316;21.166;2022-09-21T09:01:32;100812.34;;;17.44;58.57
34124;BME280;13153;52.316;21.166;2022-09-21T09:04:34;100814.25;;;17.65;58.92
34124;BME280;13153;52.316;21.166;2022-09-21T09:16:35;100812.56;;;17.83;58.51
34124;BME280;13153;52.316;21.166;2022-09-21T09:21:48;100815.19;;;17.72;58.00
34124;BME280;13153;52.316;21.166;2022-09-21T09:24:39;100811.59;;;17.65;58.65
34124;BME280;13153;52.316;21.166;2022-09-21T09:27:27;100815.97;;;17.56;58.00
34124;BME280;13153;52.316;21.166;2022-09-21T09:30:24;100811.47;;;17.45;58.61
34124;BME280;13153;52.316;21.166;2022-09-21T09:33:02;100819.41;;;17.39;59.21
34124;BME280;13153;52.316;21.166;2022-09-21T09:35:44;100807.88;;;17.39;59.81
34124;BME280;13153;52.316;21.166;2022-09-21T09:38:24;100811.41;;;17.32;59.58
34124;BME280;13153;52.316;21.166;2022-09-21T09:44:00;100806.88;;;17.15;59.88
34124;BME280;13153;52.316;21.166;2022-09-21T09:50:09;100815.59;;;16.95;60.66
34124;BME280;13153;52.316;21.166;2022-09-21T09:52:35;100807.56;;;16.89;60.97
34124;BME280;13153;52.316;21.166;2022-09-21T09:55:23;100816.41;;;16.84;61.53
34124;BME280;13153;52.316;21.166;2022-09-21T09:57:51;100809.31;;;16.83;61.96
34124;BME280;13153;52.316;21.166;2022-09-21T10:00:20;100815.53;;;16.86;62.32
34124;BME280;13153;52.316;21.166;2022-09-21T10:02:57;100811.09;;;16.86;61.89
34124;BME280;13153;52.316;21.166;2022-09-21T10:05:35;100813.88;;;17.01;61.09
34124;BME280;13153;52.316;21.166;2022-09-21T10:08:03;100803.41;;;17.26;60.95
34124;BME280;13153;52.316;21.166;2022-09-21T10:13:49;100803.69;;;17.82;59.78
34124;BME280;13153;52.316;21.166;2022-09-21T10:16:10;100806.41;;;18.02;59.24
34124;BME280;13153;52.316;21.166;2022-09-21T10:21:33;100810.84;;;18.06;59.01
34124;BME280;13153;52.316;21.166;2022-09-21T10:24:30;100808.13;;;17.92;58.81
34124;BME280;13153;52.316;21.166;2022-09-21T10:27:10;100812.56;;;17.81;58.88
34124;BME280;13153;52.316;21.166;2022-09-21T10:29:42;100815.19;;;17.70;59.34
34124;BME280;13153;52.316;21.166;2022-09-21T10:34:39;100808.97;;;17.71;59.38
34124;BME280;13153;52.316;21.166;2022-09-21T10:37:27;100806.38;;;17.84;58.62
34124;BME280;13153;52.316;21.166;2022-09-21T10:39:54;100811.72;;;17.90;58.51
34124;BME280;13153;52.316;21.166;2022-09-21T10:42:20;100803.69;;;17.91;58.88
34124;BME280;13153;52.316;21.166;2022-09-21T10:44:51;100813.47;;;17.88;59.27
34124;BME280;13153;52.316;21.166;2022-09-21T10:47:24;100811.69;;;17.80;58.52
34124;BME280;13153;52.316;21.166;2022-09-21T10:50:04;100817.00;;;17.80;58.74
34124;BME280;13153;52.316;21.166;2022-09-21T10:52:41;100815.25;;;17.90;58.89
34124;BME280;13153;52.316;21.166;2022-09-21T10:55:17;100809.94;;;17.87;57.35
34124;BME280;13153;52.316;21.166;2022-09-21T10:57:44;100811.72;;;17.88;57.56
34124;BME280;13153;52.316;21.166;2022-09-21T11:00:39;100803.72;;;17.88;56.75
34124;BME280;13153;52.316;21.166;2022-09-21T11:06:32;100809.94;;;18.04;57.42
34124;BME280;13153;52.316;21.166;2022-09-21T11:15:48;100809.16;;;18.40;55.98
34124;BME280;13153;52.316;21.166;2022-09-21T11:17:53;100803.81;;;18.43;53.75
34124;BME280;13153;52.316;21.166;2022-09-21T11:20:50;100797.59;;;18.48;53.95
34124;BME280;13153;52.316;21.166;2022-09-21T11:26:13;100793.19;;;18.83;54.14
34124;BME280;13153;52.316;21.166;2022-09-21T11:29:05;100794.97;;;18.96;53.33
34124;BME280;13153;52.316;21.166;2022-09-21T11:34:47;100790.50;;;19.02;51.40
34124;BME280;13153;52.316;21.166;2022-09-21T11:40:24;100789.63;;;18.94;53.40
34124;BME280;13153;52.316;21.166;2022-09-21T11:52:44;100781.63;;;18.67;54.27
34124;BME280;13153;52.316;21.166;2022-09-21T12:03:43;100782.50;;;19.01;53.36
34124;BME280;13153;52.316;21.166;2022-09-21T12:06:36;100785.13;;;19.13;52.93
34124;BME280;13153;52.316;21.166;2022-09-21T12:09:43;100775.31;;;19.24;51.71
34124;BME280;13153;52.316;21.166;2022-09-21T12:15:34;100768.16;;;19.41;50.23
34124;BME280;13153;52.316;21.166;2022-09-21T12:18:07;100763.69;;;19.45;50.12
34124;BME280;13153;52.316;21.166;2022-09-21T12:20:59;100764.59;;;19.45;49.79
34124;BME280;13153;52.316;21.166;2022-09-21T12:23:56;100761.03;;;19.48;49.53
34124;BME280;13153;52.316;21.166;2022-09-21T12:26:39;100753.94;;;19.52;49.31
34124;BME280;13153;52.316;21.166;2022-09-21T12:34:45;100746.75;;;19.61;47.67
34124;BME280;13153;52.316;21.166;2022-09-21T12:37:32;100752.97;;;19.63;46.83
34124;BME280;13153;52.316;21.166;2022-09-21T12:40:20;100744.94;;;19.65;46.91
34124;BME280;13153;52.316;21.166;2022-09-21T12:43:15;100747.59;;;19.66;47.39
34124;BME280;13153;52.316;21.166;2022-09-21T12:45:52;100745.81;;;19.68;47.85
34124;BME280;13153;52.316;21.166;2022-09-21T12:48:36;100749.34;;;19.73;48.01
34124;BME280;13153;52.316;21.166;2022-09-21T12:51:30;100748.44;;;19.74;46.86
34124;BME280;13153;52.316;21.166;2022-09-21T12:54:14;100745.81;;;19.70;47.43
34124;BME280;13153;52.316;21.166;2022-09-21T12:56:52;100743.22;;;19.55;45.40
34124;BME280;13153;52.316;21.166;2022-09-21T12:59:39;100749.44;;;19.49;46.42
34124;BME280;13153;52.316;21.166;2022-09-21T13:08:10;100753.91;;;19.47;45.81
34124;BME280;13153;52.316;21.166;2022-09-21T13:10:54;100745.00;;;19.48;47.33
34124;BME280;13153;52.316;21.166;2022-09-21T13:13:32;100751.25;;;19.47;46.79
34124;BME280;13153;52.316;21.166;2022-09-21T13:16:00;100747.69;;;19.51;46.64
34124;BME280;13153;52.316;21.166;2022-09-21T13:18:31;100748.56;;;19.49;45.67
34124;BME280;13153;52.316;21.166;2022-09-21T13:21:12;100750.38;;;19.51;46.08
34124;BME280;13153;52.316;21.166;2022-09-21T13:23:40;100752.16;;;19.41;44.36
34124;BME280;13153;52.316;21.166;2022-09-21T13:26:11;100749.50;;;19.34;45.13
34124;BME280;13153;52.316;21.166;2022-09-21T13:31:40;100753.09;;;19.22;45.74
34124;BME280;13153;52.316;21.166;2022-09-21T13:34:20;100748.66;;;19.18;45.95
34124;BME280;13153;52.316;21.166;2022-09-21T13:47:56;100745.97;;;19.27;46.91
34124;BME280;13153;52.316;21.166;2022-09-21T13:50:41;100753.09;;;19.24;48.61
34124;BME280;13153;52.316;21.166;2022-09-21T13:53:19;100749.53;;;19.26;49.83
34124;BME280;13153;52.316;21.166;2022-09-21T13:56:00;100744.16;;;19.34;50.24
34124;BME280;13153;52.316;21.166;2022-09-21T13:58:32;100735.28;;;19.32;50.83
34124;BME280;13153;52.316;21.166;2022-09-21T14:01:15;100745.97;;;19.24;51.16
34124;BME280;13153;52.316;21.166;2022-09-21T14:03:50;100744.22;;;19.14;51.20
34124;BME280;13153;52.316;21.166;2022-09-21T14:06:24;100745.13;;;19.10;51.13
34124;BME280;13153;52.316;21.166;2022-09-21T14:09:05;100751.38;;;19.06;50.92
34124;BME280;13153;52.316;21.166;2022-09-21T14:11:42;100747.84;;;19.02;51.08
34124;BME280;13153;52.316;21.166;2022-09-21T14:14:35;100758.50;;;19.01;51.52
34124;BME280;13153;52.316;21.166;2022-09-21T14:17:04;100754.97;;;18.97;51.49
34124;BME280;13153;52.316;21.166;2022-09-21T14:25:22;100760.31;;;18.88;51.19
34124;BME280;13153;52.316;21.166;2022-09-21T14:27:50;100756.75;;;18.89;51.81
34124;BME280;13153;52.316;21.166;2022-09-21T14:30:23;100755.84;;;18.89;51.06
34124;BME280;13153;52.316;21.166;2022-09-21T14:35:31;100745.19;;;18.95;51.25
34124;BME280;13153;52.316;21.166;2022-09-21T14:38:11;100752.28;;;18.97;51.35
34124;BME280;13153;52.316;21.166;2022-09-21T14:40:50;100754.97;;;18.99;51.75
34124;BME280;13153;52.316;21.166;2022-09-21T14:43:24;100756.72;;;19.00;52.17
34124;BME280;13153;52.316;21.166;2022-09-21T14:46:23;100756.72;;;18.98;52.20
34124;BME280;13153;52.316;21.166;2022-09-21T14:52:53;100762.97;;;18.80;51.95
34124;BME280;13153;52.316;21.166;2022-09-21T14:55:54;100758.53;;;18.73;52.78
34124;BME280;13153;52.316;21.166;2022-09-21T14:58:36;100754.97;;;18.70;53.34
34124;BME280;13153;52.316;21.166;2022-09-21T15:01:37;100749.66;;;18.64;52.97
34124;BME280;13153;52.316;21.166;2022-09-21T15:04:37;100754.97;;;18.62;53.45
34124;BME280;13153;52.316;21.166;2022-09-21T15:10:19;100758.53;;;18.64;53.67
34124;BME280;13153;52.316;21.166;2022-09-21T15:15:59;100759.44;;;18.68;54.10
34124;BME280;13153;52.316;21.166;2022-09-21T15:18:26;100756.75;;;18.66;54.27
34124;BME280;13153;52.316;21.166;2022-09-21T15:21:03;100759.44;;;18.63;54.30
34124;BME280;13153;52.316;21.166;2022-09-21T15:23:37;100755.84;;;18.60;54.09
34124;BME280;13153;52.316;21.166;2022-09-21T15:26:15;100764.72;;;18.59;54.35
34124;BME280;13153;52.316;21.166;2022-09-21T15:28:49;100762.06;;;18.54;54.45
34124;BME280;13153;52.316;21.166;2022-09-21T15:31:17;100767.38;;;18.53;55.51
34124;BME280;13153;52.316;21.166;2022-09-21T15:33:45;100763.84;;;18.51;55.18
34124;BME280;13153;52.316;21.166;2022-09-21T15:36:24;100766.53;;;18.46;55.77
34124;BME280;13153;52.316;21.166;2022-09-21T15:38:53;100763.84;;;18.41;55.73